Time;durP1;ratioP1;P1;durP2;ratioP2;P2;SDS_P1;SDS_P2;PMS_P1;PMS_P2;Temp;Humidity;BMP_temperature;BMP_pressure;BME280_temperature;BME280_humidity;BME280_pressure;Samples;Min_cycle;Max_cycle;Signal;HPM_P1;HPM_P2
2023/04/03 00:02:02;;;;;;;4.27;1.77;;;;;;;0.40;100.00;97364.53;10453250;28;20187;-74
2023/04/03 00:07:02;;;;;;;5.20;2.03;;;;;;;0.34;100.00;97364.84;10452562;28;20191;-73
2023/04/03 00:12:03;;;;;;;3.97;1.60;;;;;;;0.28;100.00;97370.31;10434854;28;20201;-74
2023/04/03 00:17:03;;;;;;;7.47;1.90;;;;;;;0.24;100.00;97363.63;10452431;28;20221;-74
2023/04/03 00:22:04;;;;;;;4.97;1.70;;;;;;;0.09;100.00;97368.66;10452051;28;20195;-73
2023/04/03 00:27:04;;;;;;;4.80;1.87;;;;;;;0.13;100.00;97365.00;10452065;28;20195;-74
2023/04/03 00:32:05;;;;;;;2.80;1.63;;;;;;;0.07;100.00;97367.88;10452179;28;20199;-74
2023/04/03 00:37:05;;;;;;;4.50;1.70;;;;;;;0.10;100.00;97357.41;10451255;28;20243;-74
2023/04/03 00:42:06;;;;;;;7.97;2.30;;;;;;;-0.14;100.00;97366.34;10451619;28;20214;-74
2023/04/03 00:47:08;;;;;;;7.97;2.30;;;;;;;-0.15;100.00;97357.78;10433171;28;20229;-73
2023/04/03 00:52:13;;;;;;;4.23;2.20;;;;;;;-0.08;100.00;97351.41;10451258;28;20647;-74
2023/04/03 00:57:15;;;;;;;4.23;2.00;;;;;;;-0.13;100.00;97355.13;10433709;28;20220;-73
2023/04/03 01:02:15;;;;;;;3.23;1.60;;;;;;;-0.12;100.00;97356.78;10415903;28;20191;-74
2023/04/03 01:07:22;;;;;;;4.93;1.90;;;;;;;-0.23;100.00;97368.47;10433135;28;20183;-74
2023/04/03 01:12:28;;;;;;;5.33;1.80;;;;;;;-0.45;100.00;97366.06;10449509;28;20188;-74
2023/04/03 01:17:33;;;;;;;6.17;2.03;;;;;;;-0.43;100.00;97379.69;10433161;28;20285;-74
2023/04/03 01:22:41;;;;;;;5.83;1.87;;;;;;;-0.56;100.00;97391.47;10450389;28;20551;-74
2023/04/03 01:27:42;;;;;;;6.20;1.73;;;;;;;-0.70;100.00;97384.38;10432757;28;20198;-74
2023/04/03 01:32:42;;;;;;;5.33;1.67;;;;;;;-0.74;100.00;97390.56;10416618;28;20218;-74
2023/04/03 01:37:42;;;;;;;4.50;2.07;;;;;;;-0.92;100.00;97394.78;10449611;28;20228;-74
2023/04/03 01:42:43;;;;;;;6.30;1.87;;;;;;;-0.96;100.00;97403.56;10432956;28;20620;-74
2023/04/03 01:47:44;;;;;;;6.17;1.70;;;;;;;-1.08;100.00;97399.78;10449874;28;20188;-75
2023/04/03 01:52:44;;;;;;;5.07;2.00;;;;;;;-1.13;100.00;97412.84;10416050;28;20619;-74
2023/04/03 01:57:45;;;;;;;6.40;2.10;;;;;;;-1.26;100.00;97411.69;10436433;28;20277;-74
2023/04/03 02:02:45;;;;;;;5.47;2.20;;;;;;;-1.38;100.00;97417.34;10423265;28;20195;-74
2023/04/03 02:07:46;;;;;;;4.43;1.70;;;;;;;-1.52;100.00;97423.91;10457158;28;20185;-75
2023/04/03 02:12:46;;;;;;;4.23;1.73;;;;;;;-1.66;100.00;97426.22;10457212;28;20287;-74
2023/04/03 02:17:46;;;;;;;6.30;1.90;;;;;;;-1.83;100.00;97439.75;10439162;28;20223;-74
2023/04/03 02:22:48;;;;;;;3.20;1.63;;;;;;;-1.89;100.00;97440.00;10439151;28;20188;-74
2023/04/03 02:27:48;;;;;;;6.03;2.03;;;;;;;-1.91;100.00;97445.19;10472331;28;20192;-74
2023/04/03 02:32:49;;;;;;;4.87;1.50;;;;;;;-1.92;100.00;97451.22;10438765;28;20599;-75
2023/04/03 02:37:49;;;;;;;5.73;2.20;;;;;;;-1.99;100.00;97447.22;10438054;28;20318;-74
2023/04/03 02:42:50;;;;;;;12.60;2.20;;;;;;;-2.18;100.00;97454.81;10456111;28;20204;-74
2023/04/03 02:47:51;;;;;;;7.40;2.30;;;;;;;-2.24;100.00;97450.75;10425425;28;20245;-74
2023/04/03 02:52:52;;;;;;;4.03;1.90;;;;;;;-2.37;100.00;97452.97;10396877;28;20193;-74
2023/04/03 02:57:52;;;;;;;10.70;2.60;;;;;;;-2.41;100.00;97468.53;10413145;28;20273;-74
2023/04/03 03:02:53;;;;;;;9.33;2.33;;;;;;;-2.49;100.00;97466.25;10403713;28;20275;-74
2023/04/03 03:07:54;;;;;;;6.60;1.90;;;;;;;-2.54;100.00;97470.72;10433793;28;20188;-74
2023/04/03 03:12:54;;;;;;;4.67;1.90;;;;;;;-2.65;100.00;97471.09;10451120;28;20188;-74
2023/04/03 03:17:55;;;;;;;6.33;2.00;;;;;;;-2.68;100.00;97476.31;10450562;28;20865;-74
2023/04/03 03:22:55;;;;;;;5.80;2.30;;;;;;;-2.73;100.00;97471.38;10451256;28;20676;-74
2023/04/03 03:27:56;;;;;;;5.50;2.10;;;;;;;-2.77;100.00;97474.97;10432375;28;20189;-74
2023/04/03 03:32:57;;;;;;;3.43;1.80;;;;;;;-2.84;100.00;97480.34;10450057;28;20652;-74
2023/04/03 03:37:57;;;;;;;4.77;1.93;;;;;;;-2.91;100.00;97483.13;10449311;28;20236;-74
2023/04/03 03:42:58;;;;;;;7.53;2.10;;;;;;;-2.91;100.00;97487.41;10449221;28;20207;-73
2023/04/03 03:47:58;;;;;;;4.27;1.93;;;;;;;-2.81;100.00;97485.38;10448866;28;20199;-74
2023/04/03 03:52:59;;;;;;;10.63;2.57;;;;;;;-2.70;100.00;97493.50;10431380;28;20235;-74
2023/04/03 03:58:00;;;;;;;6.20;2.10;;;;;;;-2.70;100.00;97478.13;10449054;28;20215;-74
2023/04/03 04:03:01;;;;;;;14.20;2.43;;;;;;;-2.74;100.00;97491.94;10450569;28;20207;-74
2023/04/03 04:08:04;;;;;;;5.60;2.13;;;;;;;-2.70;100.00;97488.38;10434865;28;20187;-74
2023/04/03 04:13:05;;;;;;;7.97;2.20;;;;;;;-2.66;100.00;97484.81;10434491;28;20180;-74
2023/04/03 04:18:06;;;;;;;7.00;2.13;;;;;;;-2.73;100.00;97491.06;10433315;28;20224;-74
2023/04/03 04:23:07;;;;;;;6.57;2.17;;;;;;;-2.71;100.00;97502.09;10450797;28;20188;-74
2023/04/03 04:28:07;;;;;;;7.20;2.07;;;;;;;-2.69;100.00;97506.28;10434089;28;20275;-74
2023/04/03 04:33:08;;;;;;;9.70;2.10;;;;;;;-2.63;100.00;97509.53;10433960;28;20263;-74
2023/04/03 04:38:09;;;;;;;4.57;2.03;;;;;;;-2.68;100.00;97507.09;10433697;28;20280;-74
2023/04/03 04:43:14;;;;;;;12.30;2.60;;;;;;;-2.63;100.00;97512.09;10433509;28;20204;-74
2023/04/03 04:48:15;;;;;;;7.40;1.90;;;;;;;-2.56;100.00;97511.81;10417348;28;20202;-75
2023/04/03 04:53:15;;;;;;;10.50;2.30;;;;;;;-2.60;100.00;97519.69;10451367;28;20187;-75
2023/04/03 04:58:16;;;;;;;11.23;2.60;;;;;;;-2.62;100.00;97524.88;10450197;28;20220;-74
2023/04/03 05:03:17;;;;;;;10.83;2.80;;;;;;;-2.56;100.00;97536.63;10451074;28;20188;-75
2023/04/03 05:08:18;;;;;;;6.27;2.33;;;;;;;-2.67;100.00;97539.56;10432787;28;20188;-74
2023/04/03 05:13:19;;;;;;;5.23;2.40;;;;;;;-2.72;100.00;97536.34;10450880;28;20195;-74
2023/04/03 05:18:20;;;;;;;8.10;2.13;;;;;;;-2.63;100.00;97545.44;10432485;28;20302;-74
2023/04/03 05:23:20;;;;;;;7.20;2.47;;;;;;;-2.73;100.00;97544.91;10450778;28;20203;-74
2023/04/03 05:28:21;;;;;;;6.97;2.60;;;;;;;-2.76;100.00;97545.00;10432673;28;20180;-74
2023/04/03 05:33:22;;;;;;;9.60;1.90;;;;;;;-2.73;100.00;97556.00;10458140;28;20184;-74
2023/04/03 05:38:26;;;;;;;12.90;2.50;;;;;;;-2.73;100.00;97547.47;10440711;28;20262;-74
2023/04/03 05:43:28;;;;;;;5.47;2.30;;;;;;;-2.90;100.00;97556.56;10440586;28;20943;-74
2023/04/03 05:48:29;;;;;;;4.70;2.03;;;;;;;-2.90;100.00;97569.41;10458443;28;20180;-74
2023/04/03 05:53:31;;;;;;;6.73;2.33;;;;;;;-2.87;100.00;97558.22;10440241;28;20686;-74
2023/04/03 05:58:35;;;;;;;10.03;2.33;;;;;;;-2.82;100.00;97569.13;10423981;28;20216;-73
2023/04/03 06:03:36;;;;;;;7.53;2.33;;;;;;;-2.87;100.00;97574.41;10439770;28;20195;-74
2023/04/03 06:08:38;;;;;;;8.53;2.50;;;;;;;-2.64;100.00;97580.50;10456439;28;20318;-74
2023/04/03 06:13:39;;;;;;;6.60;2.17;;;;;;;-2.71;100.00;97576.44;10457099;28;20200;-74
2023/04/03 06:18:39;;;;;;;10.23;2.73;;;;;;;-2.80;100.00;97582.75;10433066;28;20683;-74
2023/04/03 06:23:40;;;;;;;7.33;2.60;;;;;;;-2.61;100.00;97569.28;10418863;28;20192;-74
2023/04/03 06:28:40;;;;;;;6.97;2.57;;;;;;;-2.74;100.00;97568.88;10421069;28;20278;-74
2023/04/03 06:33:41;;;;;;;6.70;2.40;;;;;;;-2.50;100.00;97577.44;10455193;28;20755;-74
2023/04/03 06:38:41;;;;;;;10.40;2.93;;;;;;;-2.32;100.00;97581.09;10454151;28;20727;-74
2023/04/03 06:43:43;;;;;;;6.90;2.83;;;;;;;-2.25;100.00;97574.00;10453857;28;20303;-75
2023/04/03 06:48:43;;;;;;;7.07;2.67;;;;;;;-2.25;100.00;97586.81;10454608;28;20192;-74
2023/04/03 06:53:45;;;;;;;6.57;3.53;;;;;;;-2.40;100.00;97583.09;10454398;28;20184;-75
2023/04/03 06:58:46;;;;;;;6.90;2.63;;;;;;;-2.17;100.00;97582.25;10453428;28;20212;-75
2023/04/03 07:03:47;;;;;;;6.80;2.60;;;;;;;-2.19;100.00;97586.59;10449120;28;20207;-74
2023/04/03 07:08:48;;;;;;;6.43;2.67;;;;;;;-1.95;100.00;97590.00;10432209;28;20218;-74
2023/04/03 07:13:49;;;;;;;6.50;2.43;;;;;;;-2.03;100.00;97586.88;10449206;28;20192;-74
2023/04/03 07:18:50;;;;;;;7.77;2.27;;;;;;;-1.85;100.00;97591.34;10432255;28;20243;-74
2023/04/03 07:23:51;;;;;;;6.17;2.73;;;;;;;-1.45;100.00;97600.06;10445754;28;20203;-73
2023/04/03 07:28:51;;;;;;;9.67;3.23;;;;;;;-1.26;100.00;97591.63;10433108;28;20180;-74
2023/04/03 07:33:52;;;;;;;9.60;2.93;;;;;;;-1.54;100.00;97608.13;10410006;28;20191;-74
2023/04/03 07:38:52;;;;;;;6.13;2.83;;;;;;;-1.42;100.00;97614.53;10428389;28;20231;-74
2023/04/03 07:43:52;;;;;;;9.80;2.60;;;;;;;-1.18;100.00;97601.59;10428079;28;20219;-74
2023/04/03 07:48:53;;;;;;;6.33;2.93;;;;;;;-1.22;100.00;97602.66;10430561;28;20180;-74
2023/04/03 07:53:54;;;;;;;4.50;2.30;;;;;;;-0.81;100.00;97611.25;10412825;28;20182;-74
2023/04/03 07:58:54;;;;;;;7.77;2.50;;;;;;;-0.36;99.51;97610.16;10407710;28;20714;-74
2023/04/03 08:03:54;;;;;;;10.00;2.70;;;;;;;-0.41;98.89;97601.81;10430465;28;20188;-74
2023/04/03 08:08:55;;;;;;;5.43;2.20;;;;;;;-0.80;97.75;97594.88;10449376;28;20229;-73
2023/04/03 08:13:56;;;;;;;7.00;3.10;;;;;;;-0.79;99.73;97622.28;10450507;28;20186;-74
2023/04/03 08:18:56;;;;;;;10.33;3.50;;;;;;;-0.90;100.00;97633.03;10449295;28;20231;-73
2023/04/03 08:23:57;;;;;;;10.33;4.30;;;;;;;-0.87;100.00;97626.94;10450440;28;20694;-73
2023/04/03 08:28:57;;;;;;;12.97;5.03;;;;;;;-0.60;98.72;97613.78;10450330;28;20541;-73
2023/04/03 08:33:58;;;;;;;12.70;6.70;;;;;;;-0.61;100.00;97643.03;10432458;28;20661;-73
2023/04/03 08:38:58;;;;;;;9.23;3.93;;;;;;;-0.12;100.00;97638.34;10448341;28;20672;-75
2023/04/03 08:44:13;;;;;;;8.87;3.63;;;;;;;-0.11;97.39;97613.41;10448054;28;20220;-74
2023/04/03 08:49:28;;;;;;;8.90;3.07;;;;;;;0.46;95.60;97605.66;10448272;28;20566;-74
2023/04/03 08:54:34;;;;;;;4.67;2.40;;;;;;;0.42;92.62;97583.53;10431176;28;20188;-74
2023/04/03 08:59:36;;;;;;;7.37;3.30;;;;;;;0.35;93.35;97599.31;10430605;28;20228;-74
2023/04/03 09:04:37;;;;;;;17.07;4.70;;;;;;;0.30;93.12;97610.72;10428592;28;20195;-74
2023/04/03 09:09:41;;;;;;;6.03;2.30;;;;;;;0.07;93.62;97622.06;10428882;28;20202;-74
2023/04/03 09:15:05;;;;;;;7.73;2.80;;;;;;;0.22;92.64;97623.13;10445853;28;20229;-74
2023/04/03 09:20:21;;;;;;;6.80;2.60;;;;;;;0.16;92.69;97629.38;10426698;28;20196;-74
2023/04/03 09:25:27;;;;;;;7.37;2.77;;;;;;;0.13;92.77;97634.69;10415470;28;20188;-74
2023/04/03 09:30:28;;;;;;;8.00;2.63;;;;;;;0.82;90.55;97607.44;10390127;28;20197;-74
2023/04/03 09:35:31;;;;;;;7.87;2.93;;;;;;;0.62;88.05;97591.16;10389899;28;20235;-75
2023/04/03 09:40:41;;;;;;;6.73;2.40;;;;;;;0.60;87.98;97587.84;10423138;28;20259;-75
2023/04/03 09:45:44;;;;;;;8.87;2.10;;;;;;;0.97;87.25;97580.88;10443974;28;20652;-74
2023/04/03 09:50:51;;;;;;;5.97;2.20;;;;;;;0.68;86.76;97579.72;10444903;28;20188;-75
2023/04/03 09:55:51;;;;;;;6.77;2.67;;;;;;;1.23;88.10;97600.25;10439339;28;20580;-73
2023/04/03 10:00:59;;;;;;;4.27;2.17;;;;;;;1.59;83.53;97551.97;10406678;28;20207;-74
2023/04/03 10:06:01;;;;;;;8.90;2.23;;;;;;;2.03;81.96;97541.03;10420495;28;20224;-74
2023/04/03 10:11:13;;;;;;;5.77;2.30;;;;;;;1.69;81.59;97537.66;10427222;28;20219;-73
2023/04/03 10:16:18;;;;;;;7.20;2.00;;;;;;;1.92;80.96;97533.03;10426092;28;20213;-74
2023/04/03 10:21:35;;;;;;;7.03;2.20;;;;;;;3.85;80.42;97537.56;10419521;28;20606;-76
2023/04/03 10:26:44;;;;;;;4.80;1.93;;;;;;;4.72;70.06;97406.63;10453908;28;20187;-75
2023/04/03 10:32:16;;;;;;;3.73;2.10;;;;;;;4.92;66.37;97375.91;10437603;28;20222;-76
2023/04/03 10:37:28;;;;;;;3.63;2.17;;;;;;;4.07;67.48;97403.06;10434680;28;20681;-76
2023/04/03 10:42:50;;;;;;;6.50;3.17;;;;;;;3.29;73.60;97493.41;10437288;28;20767;-75
2023/04/03 10:48:19;;;;;;;7.10;1.90;;;;;;;2.75;72.19;97457.75;10436278;28;20192;-75
2023/04/03 10:53:47;;;;;;;5.70;1.90;;;;;;;2.72;74.48;97502.75;10419633;28;20202;-75
2023/04/03 10:59:23;;;;;;;4.63;1.90;;;;;;;5.23;68.51;97417.94;10452417;28;20228;-75
2023/04/03 11:04:29;;;;;;;3.70;1.60;;;;;;;5.02;63.22;97329.34;10451064;28;20615;-75
2023/04/03 11:09:33;;;;;;;9.27;3.03;;;;;;;3.68;67.37;97394.31;10435558;28;20635;-75
2023/04/03 11:14:35;;;;;;;2.70;1.83;;;;;;;2.46;70.66;97426.66;10446000;28;20690;-75
2023/04/03 11:19:41;;;;;;;5.13;2.23;;;;;;;2.79;72.72;97470.44;10419037;28;20727;-75
2023/04/03 11:24:43;;;;;;;4.13;1.50;;;;;;;3.25;71.33;97442.72;10429445;28;20176;-75
2023/04/03 11:29:45;;;;;;;5.50;2.00;;;;;;;3.21;71.23;97440.31;10429220;28;20200;-75
2023/04/03 11:34:50;;;;;;;5.93;1.67;;;;;;;3.75;71.31;97441.38;10410112;28;20691;-75
2023/04/03 11:39:56;;;;;;;3.73;1.70;;;;;;;4.52;65.81;97356.06;10403826;28;20235;-75
2023/04/03 11:45:16;;;;;;;5.17;1.53;;;;;;;4.13;64.58;97323.22;10386397;28;20189;-76
2023/04/03 11:50:41;;;;;;;4.27;1.30;;;;;;;3.87;62.69;97284.28;10391013;28;20216;-76
2023/04/03 11:55:50;;;;;;;5.20;1.30;;;;;;;3.51;64.88;97328.00;10386119;28;20217;-76
2023/04/03 12:01:10;;;;;;;5.03;1.67;;;;;;;3.27;64.26;97311.44;10387855;28;20192;-76
2023/04/03 12:06:11;;;;;;;5.87;1.30;;;;;;;3.34;62.86;97281.66;10387236;28;20271;-76
2023/04/03 12:11:11;;;;;;;4.13;1.37;;;;;;;3.55;62.56;97282.84;10401135;28;20556;-76
2023/04/03 12:16:36;;;;;;;4.30;1.60;;;;;;;3.66;60.72;97258.84;10410010;28;20263;-76
2023/04/03 12:21:49;;;;;;;3.50;1.63;;;;;;;3.82;67.04;97390.84;10409745;28;20259;-76
2023/04/03 12:27:03;;;;;;;4.53;1.50;;;;;;;3.02;62.44;97274.97;10413165;28;20188;-76
2023/04/03 12:32:03;;;;;;;6.70;3.13;;;;;;;2.58;63.78;97300.97;10402074;28;20713;-75
2023/04/03 12:37:15;;;;;;;3.57;1.93;;;;;;;2.37;63.91;97298.72;10417697;28;20330;-75
2023/04/03 12:42:24;;;;;;;7.30;1.80;;;;;;;2.74;60.91;97247.38;10451183;28;20561;-76
2023/04/03 12:47:33;;;;;;;4.47;1.80;;;;;;;2.85;62.92;97298.47;10450481;28;20247;-76
2023/04/03 12:52:41;;;;;;;3.87;1.60;;;;;;;3.16;64.48;97336.22;10433492;28;20234;-76
2023/04/03 12:57:41;;;;;;;4.40;1.70;;;;;;;3.11;63.34;97311.53;10437026;28;20246;-76
2023/04/03 13:02:44;;;;;;;5.87;1.73;;;;;;;2.67;65.42;97346.97;10450543;28;20187;-76
2023/04/03 13:07:57;;;;;;;1.93;1.40;;;;;;;2.72;63.73;97306.13;10450764;28;20207;-76
2023/04/03 13:13:07;;;;;;;4.60;1.40;;;;;;;2.28;64.63;97330.28;10432069;28;20218;-75
2023/04/03 13:18:27;;;;;;;5.27;1.50;;;;;;;3.08;63.12;97306.56;10426046;28;20209;-75
2023/04/03 13:23:28;;;;;;;2.70;1.43;;;;;;;2.95;61.19;97273.66;10433863;28;20211;-75
2023/04/03 13:28:30;;;;;;;7.10;1.57;;;;;;;3.21;61.19;97282.38;10410492;28;20184;-75
2023/04/03 13:33:37;;;;;;;2.10;1.53;;;;;;;3.19;62.00;97281.66;10411785;28;20195;-75
2023/04/03 13:39:15;;;;;;;5.60;1.43;;;;;;;3.08;61.06;97273.75;10447457;28;20568;-75
2023/04/03 13:44:20;;;;;;;8.17;1.83;;;;;;;3.35;61.23;97268.59;10428656;28;20196;-75
2023/04/03 13:49:28;;;;;;;7.63;1.87;;;;;;;2.84;64.35;97331.25;10449171;28;20180;-75
2023/04/03 13:54:35;;;;;;;3.33;1.60;;;;;;;3.37;63.79;97330.66;10433643;28;20199;-75
2023/04/03 13:59:36;;;;;;;3.33;1.77;;;;;;;3.50;64.63;97341.06;10442289;28;20741;-75
2023/04/03 14:04:36;;;;;;;3.20;1.60;;;;;;;4.74;62.17;97323.47;10456013;28;20203;-75
2023/04/03 14:09:37;;;;;;;3.53;1.47;;;;;;;3.89;61.07;97261.66;10455210;28;20680;-76
2023/04/03 14:14:38;;;;;;;1.23;1.10;;;;;;;3.52;59.83;97228.66;10423605;28;20207;-76
2023/04/03 14:19:40;;;;;;;3.63;1.27;;;;;;;3.21;61.14;97263.44;10430937;28;21611;-77
2023/04/03 14:24:40;;;;;;;2.67;1.60;;;;;;;2.87;63.21;97300.97;10430756;28;20199;-76
2023/04/03 14:29:40;;;;;;;7.73;1.87;;;;;;;1.81;67.16;97350.19;10431337;28;20532;-76
2023/04/03 14:34:42;;;;;;;4.57;1.63;;;;;;;1.81;68.96;97395.84;10432711;28;20579;-76
2023/04/03 14:39:44;;;;;;;3.47;1.50;;;;;;;1.77;68.31;97380.50;10429806;28;20228;-76
2023/04/03 14:44:44;;;;;;;2.77;1.40;;;;;;;1.51;67.09;97350.97;10403200;28;20192;-76
2023/04/03 14:49:45;;;;;;;2.87;1.40;;;;;;;1.76;65.77;97332.38;10424510;28;20176;-76
2023/04/03 14:54:45;;;;;;;2.63;1.70;;;;;;;1.70;66.06;97330.13;10429436;28;20192;-76
2023/04/03 14:59:46;;;;;;;6.07;1.40;;;;;;;3.88;61.80;97291.94;10427319;28;20745;-76
2023/04/03 15:04:46;;;;;;;5.00;1.73;;;;;;;5.10;57.94;97230.94;10431501;28;20965;-76
2023/04/03 15:09:47;;;;;;;5.40;1.53;;;;;;;3.55;60.00;97248.34;10427793;28;20656;-76
2023/04/03 15:14:47;;;;;;;7.37;1.87;;;;;;;1.71;64.30;97302.56;10432911;28;20192;-75
2023/04/03 15:19:48;;;;;;;2.87;1.80;;;;;;;1.51;66.40;97345.81;10426120;28;20703;-75
2023/04/03 15:24:48;;;;;;;4.13;1.87;;;;;;;1.34;65.26;97315.75;10401861;28;20193;-75
2023/04/03 15:29:48;;;;;;;4.67;1.37;;;;;;;2.47;65.53;97351.56;10405220;28;20287;-75
2023/04/03 15:34:49;;;;;;;4.30;1.63;;;;;;;4.87;58.65;97248.16;10414108;28;20215;-76
2023/04/03 15:39:49;;;;;;;5.07;1.60;;;;;;;6.64;54.03;97188.31;10445508;28;20238;-76
2023/04/03 15:44:49;;;;;;;5.10;1.63;;;;;;;8.63;50.18;97174.66;10448728;28;20283;-76
2023/04/03 15:49:50;;;;;;;8.90;1.60;;;;;;;8.33;47.64;97102.38;10453484;28;20191;-75
2023/04/03 15:54:50;;;;;;;2.90;1.27;;;;;;;6.49;48.14;97075.00;10431109;28;20203;-77
2023/04/03 15:59:50;;;;;;;2.27;1.37;;;;;;;3.44;56.29;97207.59;10395730;28;20225;-76
2023/04/03 16:04:51;;;;;;;5.47;1.60;;;;;;;2.72;57.78;97218.16;10418031;28;20196;-76
2023/04/03 16:09:52;;;;;;;9.27;1.70;;;;;;;1.68;60.14;97251.06;10449321;28;20246;-76
2023/04/03 16:14:52;;;;;;;3.07;1.40;;;;;;;1.58;61.39;97282.59;10450565;28;20310;-76
2023/04/03 16:19:54;;;;;;;5.27;2.03;;;;;;;1.08;64.25;97324.91;10432922;28;20226;-76
2023/04/03 16:24:55;;;;;;;2.90;2.13;;;;;;;0.95;66.48;97376.34;10449601;28;20188;-75
2023/04/03 16:29:56;;;;;;;3.27;1.73;;;;;;;0.97;65.22;97340.97;10450420;28;20929;-75
2023/04/03 16:34:57;;;;;;;4.23;2.37;;;;;;;1.16;66.01;97363.22;10450482;28;20184;-74
2023/04/03 16:39:58;;;;;;;5.43;1.90;;;;;;;0.98;65.07;97345.22;10448648;28;20246;-74
2023/04/03 16:45:00;;;;;;;4.20;2.30;;;;;;;0.92;66.03;97361.03;10449927;28;20206;-74
2023/04/03 16:50:01;;;;;;;6.33;2.57;;;;;;;1.00;65.66;97360.63;10448767;28;20554;-74
2023/04/03 16:55:01;;;;;;;3.47;1.67;;;;;;;0.77;65.05;97342.03;10449746;28;20198;-75
2023/04/03 17:00:02;;;;;;;5.07;1.60;;;;;;;0.55;67.15;97386.09;10449958;28;20195;-74
2023/04/03 17:05:03;;;;;;;2.23;1.70;;;;;;;0.48;67.81;97400.25;10449504;28;20648;-75
2023/04/03 17:10:04;;;;;;;5.23;2.27;;;;;;;0.26;69.72;97424.50;10449438;28;20211;-75
2023/04/03 17:15:05;;;;;;;3.67;1.50;;;;;;;0.29;70.60;97450.13;10449519;28;20721;-74
2023/04/03 17:20:06;;;;;;;3.90;1.67;;;;;;;0.06;71.03;97442.66;10444926;28;20814;-74
2023/04/03 17:25:07;;;;;;;11.03;7.70;;;;;;;0.02;70.07;97430.84;10445921;28;20195;-74
2023/04/03 17:30:07;;;;;;;8.50;5.70;;;;;;;0.01;71.30;97450.59;10437663;28;20202;-74
2023/04/03 17:35:08;;;;;;;11.60;9.03;;;;;;;-0.04;70.87;97445.66;10457338;28;20730;-74
2023/04/03 17:40:09;;;;;;;8.53;5.77;;;;;;;-0.10;71.05;97450.28;10458026;28;20239;-74
2023/04/03 17:45:09;;;;;;;19.30;13.97;;;;;;;-0.13;70.83;97448.66;10440367;28;20328;-74
2023/04/03 17:50:10;;;;;;;7.67;4.97;;;;;;;-0.18;70.92;97440.34;10458192;28;20196;-74
2023/04/03 17:55:11;;;;;;;19.00;12.03;;;;;;;-0.27;71.65;97463.94;10458159;28;20198;-74
2023/04/03 18:00:13;;;;;;;14.60;8.50;;;;;;;-0.63;71.92;97452.69;10439953;28;20230;-75
2023/04/03 18:05:13;;;;;;;16.63;7.53;;;;;;;-0.88;74.62;97503.53;10457582;28;20206;-74
2023/04/03 18:10:15;;;;;;;22.20;9.10;;;;;;;-1.14;75.40;97521.72;10457128;28;20556;-74
2023/04/03 18:15:15;;;;;;;17.43;5.90;;;;;;;-1.29;76.03;97528.34;10455837;28;20240;-75
2023/04/03 18:20:16;;;;;;;8.53;5.40;;;;;;;-1.44;77.35;97550.34;10457142;28;20199;-75
2023/04/03 18:25:17;;;;;;;7.50;2.87;;;;;;;-1.49;77.49;97541.97;10457178;28;20561;-74
2023/04/03 18:30:18;;;;;;;5.77;3.57;;;;;;;-1.47;77.80;97549.63;10456634;28;20249;-74
2023/04/03 18:35:18;;;;;;;4.27;2.47;;;;;;;-1.34;76.86;97524.28;10456517;28;20656;-74
2023/04/03 18:40:18;;;;;;;7.87;2.50;;;;;;;-1.44;76.70;97516.09;10454515;28;20676;-74
2023/04/03 18:45:21;;;;;;;11.67;3.40;;;;;;;-1.58;77.91;97529.50;10456178;28;20534;-75
2023/04/03 18:50:21;;;;;;;12.20;4.07;;;;;;;-1.70;78.05;97535.13;10454880;28;20294;-74
2023/04/03 18:55:22;;;;;;;4.57;2.73;;;;;;;-1.77;79.73;97556.81;10453418;28;20222;-74
2023/04/03 19:00:22;;;;;;;5.90;3.03;;;;;;;-1.44;79.20;97558.06;10454674;28;20200;-74
2023/04/03 19:05:25;;;;;;;4.27;2.80;;;;;;;-1.59;80.90;97570.66;10454347;28;20191;-74
2023/04/03 19:10:26;;;;;;;3.57;2.23;;;;;;;-1.66;81.99;97590.63;10454583;28;20199;-74
2023/04/03 19:15:26;;;;;;;6.87;2.67;;;;;;;-1.81;80.65;97559.50;10453731;28;20234;-74
2023/04/03 19:20:27;;;;;;;5.93;2.90;;;;;;;-1.78;82.44;97580.81;10453967;28;20668;-74
2023/04/03 19:25:27;;;;;;;6.67;3.40;;;;;;;-1.78;84.26;97589.34;10454325;28;20187;-74
2023/04/03 19:30:27;;;;;;;5.60;2.60;;;;;;;-1.77;84.54;97577.38;10453046;28;20218;-74
2023/04/03 19:35:28;;;;;;;5.83;2.90;;;;;;;-1.59;84.38;97570.66;10453948;28;20212;-74
2023/04/03 19:40:28;;;;;;;4.93;2.53;;;;;;;-1.49;84.76;97565.09;10452502;28;20239;-74
2023/04/03 19:45:29;;;;;;;4.27;2.77;;;;;;;-1.54;84.29;97546.47;10451710;28;20191;-74
2023/04/03 19:50:31;;;;;;;4.17;2.73;;;;;;;-1.51;84.82;97564.34;10452456;28;20183;-74
2023/04/03 19:55:32;;;;;;;7.13;2.90;;;;;;;-1.48;86.22;97579.63;10451780;28;20230;-74
2023/04/03 20:00:32;;;;;;;4.70;2.77;;;;;;;-1.55;86.44;97574.78;10452619;28;20184;-74
2023/04/03 20:05:32;;;;;;;4.33;2.47;;;;;;;-1.60;85.78;97559.56;10452537;28;20274;-74
2023/04/03 20:10:34;;;;;;;2.80;2.17;;;;;;;-1.66;86.30;97555.50;10451802;28;20198;-75
2023/04/03 20:15:39;;;;;;;3.90;2.43;;;;;;;-1.32;86.17;97559.31;10451836;28;20568;-74
2023/04/03 20:20:42;;;;;;;3.47;2.20;;;;;;;-1.40;85.62;97550.22;10451567;28;20322;-74
2023/04/03 20:25:44;;;;;;;3.87;2.27;;;;;;;-1.40;86.29;97556.19;10451797;28;20200;-74
2023/04/03 20:30:46;;;;;;;4.63;2.17;;;;;;;-1.34;86.61;97560.25;10452078;28;20195;-74
2023/04/03 20:35:47;;;;;;;5.87;1.73;;;;;;;-1.45;87.07;97558.94;10433959;28;20223;-74
2023/04/03 20:40:48;;;;;;;5.63;2.30;;;;;;;-1.64;86.52;97550.28;10451115;28;20247;-74
2023/04/03 20:45:48;;;;;;;3.37;2.40;;;;;;;-1.46;87.39;97559.84;10451403;28;20188;-74
2023/04/03 20:50:49;;;;;;;7.30;3.83;;;;;;;-1.33;86.04;97544.78;10452057;28;20215;-74
2023/04/03 20:55:58;;;;;;;4.70;2.47;;;;;;;-1.27;84.81;97523.13;10451241;28;20222;-74
2023/04/03 21:00:59;;;;;;;3.77;2.90;;;;;;;-1.18;84.25;97514.19;10450520;28;20219;-74
2023/04/03 21:25:13;;;;;;;5.00;2.60;;;;;;;-1.45;88.32;97535.00;10451167;28;20188;-74
2023/04/03 21:30:15;;;;;;;5.93;2.40;;;;;;;-1.19;87.45;97533.94;10448044;28;20566;-74
2023/04/03 21:35:15;;;;;;;4.10;2.37;;;;;;;-1.32;86.85;97532.75;10437794;28;20188;-75
2023/04/03 21:40:16;;;;;;;6.83;2.50;;;;;;;-1.20;86.32;97524.53;10437802;28;20314;-74
2023/04/03 21:45:17;;;;;;;4.73;2.50;;;;;;;-1.24;85.48;97519.59;10450561;28;20199;-74
2023/04/03 21:50:18;;;;;;;4.97;2.50;;;;;;;-1.34;85.37;97519.16;10450208;28;20269;-74
2023/04/03 21:55:18;;;;;;;8.23;2.67;;;;;;;-1.45;86.10;97517.84;10449850;28;20246;-74
2023/04/03 22:00:20;;;;;;;4.63;2.70;;;;;;;-1.60;87.44;97535.63;10450368;28;20306;-74
2023/04/03 22:05:21;;;;;;;7.03;3.20;;;;;;;-1.62;88.98;97543.38;10450147;28;20184;-74
2023/04/03 22:10:21;;;;;;;5.50;2.63;;;;;;;-1.62;90.29;97551.09;10450000;28;20555;-74
2023/04/03 22:15:22;;;;;;;4.77;3.50;;;;;;;-1.39;89.71;97544.19;10456846;28;20199;-74
2023/04/03 22:20:22;;;;;;;3.57;2.67;;;;;;;-1.17;89.10;97529.56;10456211;28;20188;-73
2023/04/03 22:25:22;;;;;;;6.70;2.70;;;;;;;-1.10;88.93;97530.97;10457305;28;20180;-73
2023/04/03 22:30:23;;;;;;;7.17;2.93;;;;;;;-1.22;88.43;97517.81;10456967;28;20296;-74
2023/04/03 22:35:23;;;;;;;7.07;3.57;;;;;;;-1.42;88.91;97521.16;10456972;28;20192;-74
2023/04/03 22:40:23;;;;;;;7.40;2.73;;;;;;;-1.55;91.28;97541.41;10456063;28;20711;-73
2023/04/03 22:45:24;;;;;;;4.40;2.90;;;;;;;-1.32;93.37;97561.03;10456783;28;20628;-74
2023/04/03 22:50:24;;;;;;;4.00;2.60;;;;;;;-1.20;92.34;97544.28;10455792;28;20671;-74
2023/04/03 22:55:25;;;;;;;9.00;3.07;;;;;;;-1.37;91.47;97535.50;10456112;28;20682;-73
2023/04/03 23:00:26;;;;;;;5.33;2.97;;;;;;;-1.45;93.04;97538.41;10455700;28;20195;-74
2023/04/03 23:05:27;;;;;;;4.50;3.27;;;;;;;-1.62;97.23;97563.94;10455650;28;20195;-74
2023/04/03 23:10:28;;;;;;;5.67;2.93;;;;;;;-1.54;98.73;97559.31;10455493;28;20200;-74
2023/04/03 23:15:28;;;;;;;7.83;2.93;;;;;;;-1.45;100.00;97558.13;10455273;28;20220;-74
2023/04/03 23:20:29;;;;;;;3.93;2.60;;;;;;;-1.49;100.00;97556.56;10437468;28;20311;-74
2023/04/03 23:25:29;;;;;;;5.13;2.80;;;;;;;-1.42;100.00;97554.56;10454338;28;20187;-74
2023/04/03 23:30:30;;;;;;;5.67;3.07;;;;;;;-1.38;100.00;97556.97;10453610;28;20192;-74
2023/04/03 23:35:30;;;;;;;5.50;2.67;;;;;;;-1.33;100.00;97556.78;10454421;28;20205;-74
2023/04/03 23:40:31;;;;;;;4.47;2.73;;;;;;;-1.33;100.00;97549.06;10453694;28;20327;-74
2023/04/03 23:45:31;;;;;;;7.20;3.00;;;;;;;-1.29;100.00;97543.78;10454513;28;20207;-73